SPHO/AYP METAR and TAF weather

Enter ICAO airport designator
Station Type Date Time Source
SPHO METAR 2019/08/21 23:00 UTC NOAA

SPHO 212300Z 04005KT 010V090 9999 BKN110 19/03 Q1029 RMK PP000


Station Type Date Time Source
SPHO Decoded METAR 2019/08/21 23:00 UTC NOAA

Station name not available
Aug 21, 2019 - 07:00 PM EDT / 2019.08.21 2300 UTC
Wind: from the NE (040 degrees) at 6 MPH (5 KT) (direction variable):0
Visibility: greater than 7 mile(s):0
Sky conditions: mostly cloudy
Temperature: 66 F (19 C)
Dew Point: 37 F (3 C)
Relative Humidity: 34%
Pressure (altimeter): 30.39 in. Hg (1029 hPa)
ob: SPHO 212300Z 04005KT 010V090 9999 BKN110 19/03 Q1029 RMK PP000
cycle: 23

Station Type Date Time Source
SPHO TAF 2019/08/21 18:33 UTC NOAA

SPHO 211700Z 2118/2218 VRB05KT 9999 FEW050 BKN080 TX20/2120Z TN08/2211Z
TEMPO 2120/2122 02010KT

Example: see airport list